createdAt,value
2018-10-03T00:01:33.504Z,23.03
2018-10-03T00:04:03.716Z,22.03
2018-10-03T00:06:33.972Z,19.93
2018-10-03T00:09:05.512Z,25.43
2018-10-03T00:11:35.756Z,22.30
2018-10-03T00:14:06.761Z,25.23
2018-10-03T00:16:37.265Z,23.10
2018-10-03T00:19:07.544Z,21.43
2018-10-03T00:21:37.888Z,21.40
2018-10-03T00:24:08.314Z,23.23
2018-10-03T00:26:38.744Z,20.30
2018-10-03T00:29:09.430Z,24.40
2018-10-03T00:31:39.741Z,20.20
2018-10-03T00:34:10.078Z,24.77
2018-10-03T00:36:40.480Z,25.30
2018-10-03T00:39:12.160Z,22.47
2018-10-03T00:41:42.980Z,19.97
2018-10-03T00:44:13.542Z,22.83
2018-10-03T00:46:43.904Z,23.30
2018-10-03T00:49:14.425Z,20.63
2018-10-03T00:51:44.966Z,23.53
2018-10-03T00:54:15.409Z,22.20
2018-10-03T00:56:46.098Z,24.13
2018-10-03T00:59:16.450Z,23.63
2018-10-03T01:01:46.790Z,22.10
2018-10-03T01:04:17.441Z,25.47
2018-10-03T01:06:48.097Z,24.40
2018-10-03T01:09:18.379Z,23.97
2018-10-03T01:11:48.681Z,25.33
2018-10-03T01:14:19.040Z,24.00
2018-10-03T01:16:49.342Z,21.80
2018-10-03T01:19:20.227Z,24.13
2018-10-03T01:21:50.552Z,29.83
2018-10-03T01:24:21.176Z,23.83
2018-10-03T01:26:51.863Z,24.03
2018-10-03T01:29:22.133Z,27.47
2018-10-03T01:31:52.721Z,22.33
2018-10-03T01:34:23.024Z,27.23
2018-10-03T01:36:53.508Z,28.27
2018-10-03T01:39:23.841Z,24.47
2018-10-03T01:41:54.530Z,30.97
2018-10-03T01:44:24.996Z,29.50
2018-10-03T01:46:55.235Z,26.07
2018-10-03T01:49:25.972Z,23.97
2018-10-03T01:51:56.475Z,22.90
2018-10-03T01:54:26.707Z,21.63
2018-10-03T01:56:57.188Z,27.30
2018-10-03T01:59:27.864Z,28.30
2018-10-03T02:01:58.252Z,25.63
2018-10-03T02:04:28.623Z,31.47
2018-10-03T02:06:59.061Z,31.90
2018-10-03T02:09:29.484Z,35.17
2018-10-03T02:11:59.800Z,42.03
2018-10-03T02:17:34.979Z,43.37
2018-10-03T02:20:07.291Z,32.87
2018-10-03T02:22:37.963Z,30.97
2018-10-03T02:25:08.643Z,31.90
2018-10-03T02:27:38.991Z,25.77
2018-10-03T02:30:09.360Z,34.87
2018-10-03T02:32:39.793Z,28.37
2018-10-03T02:35:10.165Z,31.80
2018-10-03T02:37:40.998Z,40.37
2018-10-03T02:40:11.140Z,36.93
2018-10-03T02:42:41.634Z,38.33
2018-10-03T02:45:11.952Z,38.23
2018-10-03T02:47:42.559Z,32.93
2018-10-03T02:50:13.236Z,40.50
2018-10-03T02:52:43.567Z,38.10
2018-10-03T02:55:14.218Z,39.60
2018-10-03T02:57:44.991Z,40.37
2018-10-03T03:00:15.320Z,42.07
2018-10-03T03:02:46.003Z,39.37
2018-10-03T03:05:16.473Z,38.93
2018-10-03T03:07:47.231Z,35.70
2018-10-03T03:10:17.616Z,41.50
2018-10-03T03:12:48.287Z,38.63
2018-10-03T03:15:18.957Z,42.67
2018-10-03T03:17:49.520Z,38.40
2018-10-03T03:20:19.862Z,34.77
2018-10-03T03:22:50.294Z,43.03
2018-10-03T03:25:21.159Z,36.53
2018-10-03T03:27:51.942Z,39.47
2018-10-03T03:30:22.223Z,41.13
2018-10-03T03:32:52.722Z,40.63
2018-10-03T03:35:23.033Z,32.90
2018-10-03T03:37:53.966Z,31.87
2018-10-03T03:40:24.275Z,36.87
2018-10-03T03:42:54.525Z,46.47
2018-10-03T03:45:25.068Z,42.97
2018-10-03T03:47:55.895Z,38.90
2018-10-03T03:50:26.361Z,37.67
2018-10-03T03:52:56.626Z,55.33
2018-10-03T03:55:27.207Z,40.13
2018-10-03T03:57:57.640Z,43.30
2018-10-03T04:00:27.940Z,39.33
2018-10-03T04:02:58.546Z,47.87
2018-10-03T04:05:28.800Z,40.23
2018-10-03T04:07:59.271Z,50.30
2018-10-03T04:10:29.635Z,33.30
2018-10-03T04:13:00.381Z,41.90
2018-10-03T04:15:30.793Z,51.50
2018-10-03T04:18:01.152Z,53.47
2018-10-03T04:20:31.831Z,64.20
2018-10-03T04:23:02.012Z,58.53
2018-10-03T04:25:32.400Z,67.90
2018-10-03T04:28:02.676Z,58.97
2018-10-03T04:30:33.003Z,53.60
2018-10-03T04:33:03.492Z,40.13
2018-10-03T04:35:34.215Z,39.43
2018-10-03T04:38:04.540Z,37.07
2018-10-03T04:40:34.765Z,38.77
2018-10-03T04:43:05.235Z,40.60
2018-10-03T04:45:36.702Z,33.40
2018-10-03T04:48:07.050Z,39.13
2018-10-03T04:50:37.547Z,32.47
2018-10-03T04:53:08.109Z,33.40
2018-10-03T04:55:38.649Z,27.40
2018-10-03T04:58:08.969Z,28.10
2018-10-03T05:00:39.495Z,25.80
2018-10-03T05:03:09.775Z,25.73
2018-10-03T05:05:40.124Z,26.60
2018-10-03T05:08:10.411Z,21.77
2018-10-03T05:10:41.681Z,24.67
2018-10-03T05:13:17.384Z,24.07
2018-10-03T05:15:48.829Z,33.45
2018-10-03T05:18:19.178Z,31.20
2018-10-03T05:20:49.489Z,39.70
2018-10-03T05:23:19.900Z,50.00
2018-10-03T05:25:50.207Z,33.50
2018-10-03T05:28:20.837Z,28.47
2018-10-03T05:30:51.154Z,27.63
2018-10-03T05:33:21.596Z,25.93
2018-10-03T05:35:52.882Z,28.90
2018-10-03T05:38:29.887Z,37.83
2018-10-03T05:41:00.573Z,41.50
2018-10-03T05:43:31.306Z,40.13
2018-10-03T05:46:01.716Z,39.60
2018-10-03T05:48:32.507Z,33.97
2018-10-03T05:51:02.812Z,29.77
2018-10-03T05:53:33.191Z,35.50
2018-10-03T05:56:03.737Z,33.73
2018-10-03T05:58:34.269Z,31.43
2018-10-03T06:01:04.630Z,39.00
2018-10-03T06:03:35.032Z,27.20
2018-10-03T06:06:05.484Z,31.97
2018-10-03T06:08:36.160Z,26.43
2018-10-03T06:11:06.623Z,30.63
2018-10-03T06:13:37.294Z,27.73
2018-10-03T06:16:07.817Z,26.00
2018-10-03T06:18:38.275Z,25.53
2018-10-03T06:21:08.651Z,30.47
2018-10-03T06:23:38.961Z,24.73
2018-10-03T06:26:09.314Z,24.80
2018-10-03T06:28:40.529Z,26.10
2018-10-03T06:31:10.948Z,25.33
2018-10-03T06:33:42.061Z,26.12
2018-10-03T06:36:12.636Z,30.50
2018-10-03T06:38:43.185Z,24.33
2018-10-03T06:41:13.872Z,27.60
2018-10-03T06:43:44.214Z,29.10
2018-10-03T06:46:14.561Z,21.57
2018-10-03T06:48:44.984Z,25.17
2018-10-03T06:51:15.447Z,24.30
2018-10-03T06:53:45.832Z,23.07
2018-10-03T06:56:16.116Z,22.77
2018-10-03T06:58:46.764Z,24.90
2018-10-03T07:01:17.131Z,18.67
2018-10-03T07:03:47.428Z,20.00
2018-10-03T07:06:17.808Z,18.83
2018-10-03T07:08:48.589Z,19.63
2018-10-03T07:11:18.890Z,23.10
2018-10-03T07:13:49.348Z,24.77
2018-10-03T07:16:20.133Z,25.63
2018-10-03T07:18:50.598Z,24.77
2018-10-03T07:21:20.865Z,21.40
2018-10-03T07:23:51.247Z,19.73
2018-10-03T07:26:21.967Z,23.17
2018-10-03T07:28:52.863Z,32.97
2018-10-03T07:31:23.293Z,21.77
2018-10-03T07:33:53.989Z,24.77
2018-10-03T07:36:24.829Z,25.67
2018-10-03T07:38:55.251Z,27.40
2018-10-03T07:41:25.499Z,28.97
2018-10-03T07:46:56.451Z,26.30
2018-10-03T07:52:54.507Z,35.30
2018-10-03T07:55:48.997Z,28.20
2018-10-03T08:01:53.796Z,23.97
2018-10-03T08:04:55.454Z,23.30
2018-10-03T08:11:10.555Z,32.88
2018-10-03T08:23:22.389Z,21.67
2018-10-03T08:26:27.653Z,20.17
2018-10-03T08:29:22.833Z,20.80
2018-10-03T08:31:55.249Z,23.13
2018-10-03T08:34:29.723Z,21.77
2018-10-03T08:37:17.313Z,21.57
2018-10-03T08:40:07.555Z,21.40
2018-10-03T08:42:59.864Z,25.30
2018-10-03T08:51:41.034Z,27.03
2018-10-03T09:12:29.190Z,23.37
2018-10-03T09:21:00.271Z,27.17
2018-10-03T09:23:30.688Z,27.43
2018-10-03T09:26:01.252Z,28.03
2018-10-03T09:28:32.001Z,26.23
2018-10-03T09:31:02.407Z,27.30
2018-10-03T09:33:32.785Z,27.10
2018-10-03T09:36:03.209Z,29.63
2018-10-03T09:38:33.855Z,24.57
2018-10-03T09:41:04.958Z,24.20
2018-10-03T09:43:37.454Z,28.53
2018-10-03T09:46:10.967Z,29.27
2018-10-03T09:48:41.473Z,22.10
2018-10-03T09:51:11.852Z,22.77
2018-10-03T09:53:42.679Z,24.03
2018-10-03T09:56:13.379Z,20.03
2018-10-03T09:58:46.588Z,19.33
2018-10-03T10:01:22.055Z,23.83
2018-10-03T10:03:52.482Z,31.00
2018-10-03T10:06:23.256Z,39.53
2018-10-03T10:08:53.673Z,19.13
2018-10-03T10:11:24.211Z,19.93
2018-10-03T10:13:54.689Z,16.23
2018-10-03T10:16:25.239Z,17.20
2018-10-03T10:18:55.861Z,15.70
2018-10-03T10:21:26.388Z,23.27
2018-10-03T10:23:57.225Z,21.63
2018-10-03T10:26:28.405Z,19.57
2018-10-03T10:28:59.272Z,18.47
2018-10-03T10:31:29.763Z,19.80
2018-10-03T10:34:00.445Z,20.77
2018-10-03T10:36:31.163Z,17.63
2018-10-03T10:39:01.644Z,18.83
2018-10-03T10:41:32.542Z,19.10
2018-10-03T10:44:03.224Z,20.30
2018-10-03T10:46:33.770Z,20.77
2018-10-03T10:49:04.273Z,28.03
2018-10-03T10:51:34.809Z,17.30
2018-10-03T10:54:05.390Z,17.23
2018-10-03T10:56:36.358Z,22.57
2018-10-03T10:59:07.460Z,19.00
2018-10-03T11:01:38.008Z,17.07
2018-10-03T11:04:08.443Z,19.53
2018-10-03T11:06:39.012Z,18.40
2018-10-03T11:09:10.153Z,17.43
2018-10-03T11:11:40.669Z,16.37
2018-10-03T11:14:11.245Z,25.53
2018-10-03T11:16:41.872Z,16.43
2018-10-03T11:19:12.458Z,22.60
2018-10-03T11:21:43.061Z,17.27
2018-10-03T11:24:13.895Z,18.93
2018-10-03T11:26:44.758Z,18.97
2018-10-03T11:29:15.299Z,17.73
2018-10-03T11:31:45.933Z,19.80
2018-10-03T11:34:17.187Z,18.67
2018-10-03T11:36:47.803Z,18.37
2018-10-03T11:39:18.705Z,16.53
2018-10-03T11:41:49.264Z,19.13
2018-10-03T11:44:19.933Z,18.30
2018-10-03T11:46:50.264Z,19.13
2018-10-03T11:49:20.650Z,18.60
2018-10-03T11:51:51.073Z,18.90
2018-10-03T11:54:21.633Z,16.90
2018-10-03T11:56:52.117Z,25.73
2018-10-03T11:59:22.712Z,16.33
2018-10-03T12:01:53.443Z,18.37
2018-10-03T12:04:23.887Z,15.23
2018-10-03T12:06:54.600Z,15.60
2018-10-03T12:09:25.005Z,18.10
2018-10-03T12:11:55.414Z,16.33
2018-10-03T12:14:25.894Z,20.60
2018-10-03T12:16:56.201Z,17.00
2018-10-03T12:19:27.019Z,20.37
2018-10-03T12:21:57.494Z,17.57
2018-10-03T12:24:27.827Z,17.37
2018-10-03T12:26:59.450Z,13.97
2018-10-03T12:29:29.934Z,20.63
2018-10-03T12:32:00.639Z,17.37
2018-10-03T12:34:31.111Z,14.53
2018-10-03T12:37:01.957Z,12.97
2018-10-03T12:39:32.334Z,27.73
2018-10-03T12:42:02.970Z,93.17
2018-10-03T12:44:33.493Z,76.27
2018-10-03T12:47:04.196Z,23.20
2018-10-03T12:49:34.721Z,32.43
2018-10-03T12:52:05.959Z,31.17
2018-10-03T12:54:36.953Z,17.70
2018-10-03T12:57:07.466Z,18.43
2018-10-03T12:59:38.010Z,15.47
2018-10-03T13:02:09.240Z,16.90
2018-10-03T13:04:40.386Z,14.63
2018-10-03T13:07:10.766Z,20.60
2018-10-03T13:09:41.376Z,32.30
2018-10-03T13:12:11.869Z,18.20
2018-10-03T13:14:42.200Z,25.37
2018-10-03T13:17:12.818Z,20.53
2018-10-03T13:19:43.544Z,20.07
2018-10-03T13:22:14.307Z,35.23
2018-10-03T13:24:46.453Z,24.73
2018-10-03T13:27:19.590Z,29.17
2018-10-03T13:29:50.521Z,33.33
2018-10-03T13:32:21.050Z,31.90
2018-10-03T13:34:51.510Z,19.17
2018-10-03T13:37:22.005Z,21.13
2018-10-03T13:39:52.747Z,22.27
2018-10-03T13:42:23.154Z,22.63
2018-10-03T13:44:53.741Z,22.03
2018-10-03T13:47:24.089Z,27.37
2018-10-03T13:50:00.969Z,16.77
2018-10-03T13:52:31.327Z,22.40
2018-10-03T13:55:02.075Z,32.47
2018-10-03T13:57:32.772Z,31.67
2018-10-03T14:00:03.151Z,20.23
2018-10-03T14:02:33.667Z,22.90
2018-10-03T14:05:04.450Z,15.90
2018-10-03T14:07:35.015Z,11.67
2018-10-03T14:10:05.863Z,13.37
2018-10-03T14:12:36.380Z,14.93
2018-10-03T14:15:07.031Z,14.97
2018-10-03T14:17:37.690Z,14.73
2018-10-03T14:20:08.408Z,14.63
2018-10-03T14:22:38.879Z,14.87
2018-10-03T14:25:09.549Z,15.03
2018-10-03T14:27:40.253Z,13.77
2018-10-03T14:30:10.210Z,16.17
2018-10-03T14:32:40.634Z,17.87
2018-10-03T14:35:11.793Z,24.17
2018-10-03T14:37:43.063Z,12.97
2018-10-03T14:40:17.802Z,19.07
2018-10-03T14:45:17.806Z,20.43
2018-10-03T14:47:48.249Z,27.43
2018-10-03T14:50:18.795Z,22.70
2018-10-03T14:52:49.256Z,19.33
2018-10-03T14:55:19.862Z,16.83
2018-10-03T14:57:50.974Z,17.07
2018-10-03T15:00:21.325Z,19.20
2018-10-03T15:02:52.018Z,21.03
2018-10-03T15:05:22.489Z,27.07
2018-10-03T15:07:53.998Z,24.17
2018-10-03T15:10:25.211Z,23.93
2018-10-03T15:12:55.591Z,31.60
2018-10-03T15:15:26.162Z,24.93
2018-10-03T15:17:57.649Z,24.07
2018-10-03T15:20:28.648Z,19.63
2018-10-03T15:22:59.240Z,22.77
2018-10-03T15:25:29.632Z,19.57
2018-10-03T15:28:00.142Z,21.30
2018-10-03T15:30:30.964Z,23.37
2018-10-03T15:33:01.612Z,26.93
2018-10-03T15:35:32.208Z,38.03
2018-10-03T15:38:02.724Z,45.70
2018-10-03T15:40:33.680Z,45.63
2018-10-03T15:43:04.008Z,54.33
2018-10-03T15:45:54.699Z,57.83
2018-10-03T15:51:26.885Z,35.30
2018-10-03T15:53:58.068Z,40.10
2018-10-03T15:56:28.636Z,33.13
2018-10-03T15:59:09.422Z,61.67
2018-10-03T16:01:41.898Z,84.50
2018-10-03T16:04:14.059Z,78.90
2018-10-03T16:06:55.074Z,52.00
2018-10-03T16:09:27.945Z,44.73
2018-10-03T16:11:58.865Z,38.87
2018-10-03T16:14:30.564Z,51.57
2018-10-03T16:17:01.594Z,60.63
2018-10-03T16:19:32.819Z,47.27
2018-10-03T16:22:03.979Z,48.37
2018-10-03T16:24:34.727Z,40.53
2018-10-03T16:27:05.367Z,36.30
2018-10-03T16:29:35.838Z,43.00
2018-10-03T16:32:06.498Z,38.60
2018-10-03T16:34:36.962Z,37.13
2018-10-03T16:37:07.449Z,36.43
2018-10-03T16:39:37.821Z,33.67
2018-10-03T16:42:08.411Z,32.83
2018-10-03T16:44:39.194Z,28.97
2018-10-03T16:47:10.488Z,34.43
2018-10-03T16:49:41.229Z,32.67
2018-10-03T16:52:11.747Z,36.17
2018-10-03T16:54:42.174Z,28.37
2018-10-03T16:57:12.581Z,29.77
2018-10-03T16:59:43.172Z,27.83
2018-10-03T17:02:13.759Z,26.03
2018-10-03T17:04:44.366Z,32.80
2018-10-03T17:07:14.843Z,32.47
2018-10-03T17:09:45.339Z,31.87
2018-10-03T17:21:16.325Z,34.83
2018-10-03T17:32:50.557Z,33.33
2018-10-03T17:59:25.609Z,47.20
2018-10-03T18:01:59.823Z,44.03
2018-10-03T18:04:31.710Z,46.33
2018-10-03T18:07:03.463Z,43.37
2018-10-03T18:09:34.590Z,50.83
2018-10-03T18:12:06.397Z,54.23
2018-10-03T18:14:43.291Z,51.97
2018-10-03T18:17:14.906Z,48.43
2018-10-03T18:19:45.786Z,48.47
2018-10-03T18:22:17.186Z,49.60
2018-10-03T18:24:48.277Z,49.63
2018-10-03T18:27:19.257Z,51.87
2018-10-03T18:29:49.899Z,58.07
2018-10-03T18:32:20.735Z,62.23
2018-10-03T18:34:51.812Z,47.87
2018-10-03T18:37:22.892Z,58.27
2018-10-03T18:39:53.939Z,63.07
2018-10-03T18:42:24.852Z,63.37
2018-10-03T18:44:55.856Z,61.47
2018-10-03T18:47:27.174Z,63.20
2018-10-03T18:49:58.581Z,66.63
2018-10-03T18:52:29.430Z,68.10
2018-10-03T18:55:01.444Z,103.37
2018-10-03T18:57:33.011Z,80.70
2018-10-03T19:00:06.400Z,66.77
2018-10-03T19:02:38.141Z,61.63
2018-10-03T19:05:08.916Z,60.93
2018-10-03T19:07:39.463Z,55.47
2018-10-03T19:10:11.134Z,56.27
2018-10-03T19:12:44.760Z,59.93
2018-10-03T19:18:15.682Z,51.60
2018-10-03T19:20:46.379Z,54.50
2018-10-03T19:23:17.716Z,52.20
2018-10-03T19:25:51.744Z,54.17
2018-10-03T19:28:22.584Z,58.77
2018-10-03T19:30:53.353Z,61.03
2018-10-03T19:36:24.958Z,49.10
2018-10-03T19:38:57.077Z,48.17
2018-10-03T19:41:28.172Z,58.00
2018-10-03T19:44:01.022Z,53.53
2018-10-03T20:16:05.505Z,62.60
2018-10-03T20:18:36.512Z,57.90
2018-10-03T20:21:07.611Z,64.93
2018-10-03T20:23:38.423Z,59.30
2018-10-03T20:26:09.339Z,63.03
2018-10-03T20:28:40.409Z,57.17
2018-10-03T20:31:11.086Z,59.63
2018-10-03T20:33:41.734Z,63.23
2018-10-03T20:36:12.577Z,53.60
2018-10-03T20:38:43.143Z,66.43
2018-10-03T20:41:13.836Z,70.03
2018-10-03T20:43:44.514Z,73.63
2018-10-03T20:46:15.143Z,65.33
2018-10-03T20:48:45.977Z,55.63
2018-10-03T20:51:16.522Z,60.33
2018-10-03T20:53:47.366Z,56.23
2018-10-03T20:56:17.770Z,56.27
2018-10-03T20:58:48.441Z,54.10
2018-10-03T21:01:19.293Z,51.77
2018-10-03T21:03:50.293Z,56.70
2018-10-03T21:06:20.974Z,60.50
2018-10-03T21:08:51.938Z,54.47
2018-10-03T21:11:22.748Z,61.77
2018-10-03T21:13:53.558Z,67.73
2018-10-03T21:16:24.587Z,71.37
2018-10-03T21:18:55.983Z,69.40
2018-10-03T21:21:27.293Z,67.17
2018-10-03T21:23:57.822Z,64.43
2018-10-03T21:26:28.315Z,60.13
2018-10-03T21:28:58.943Z,55.97
2018-10-03T21:31:29.562Z,56.50
2018-10-03T21:34:00.201Z,62.57
2018-10-03T21:36:30.999Z,64.47
2018-10-03T21:39:01.534Z,68.37
2018-10-03T21:41:32.416Z,61.77
2018-10-03T21:44:03.064Z,67.57
2018-10-03T21:46:33.994Z,62.30
2018-10-03T21:49:04.687Z,68.20
2018-10-03T21:51:35.273Z,66.13
2018-10-03T21:54:05.635Z,62.73
2018-10-03T21:56:36.097Z,77.78
2018-10-03T21:59:06.739Z,67.83
2018-10-03T22:01:37.307Z,67.80
2018-10-03T22:04:08.059Z,63.37
2018-10-03T22:06:38.656Z,70.10
2018-10-03T22:09:10.040Z,59.70
2018-10-03T22:11:41.025Z,64.50
2018-10-03T22:14:11.662Z,68.10
2018-10-03T22:16:42.293Z,58.60
2018-10-03T22:19:13.151Z,59.90
2018-10-03T22:21:43.813Z,58.70
2018-10-03T22:24:14.504Z,50.07
2018-10-03T22:26:45.232Z,55.40
2018-10-03T22:29:15.973Z,48.87
2018-10-03T22:31:46.592Z,54.33
2018-10-03T22:34:17.357Z,51.27
2018-10-03T22:36:48.040Z,51.60
2018-10-03T22:39:18.849Z,59.63
2018-10-03T22:41:49.371Z,56.92
2018-10-03T22:44:19.809Z,67.78
2018-10-03T22:46:50.368Z,61.67
2018-10-03T22:49:20.933Z,60.93
2018-10-03T22:51:51.555Z,64.43
2018-10-03T22:54:22.191Z,66.07
2018-10-03T22:56:52.791Z,60.33
2018-10-03T22:59:24.019Z,55.40
2018-10-03T23:01:54.706Z,61.17
2018-10-03T23:04:25.518Z,64.37
2018-10-03T23:06:56.474Z,58.93
2018-10-03T23:09:27.424Z,71.35
2018-10-03T23:11:58.120Z,63.57
2018-10-03T23:14:28.596Z,69.65
2018-10-03T23:16:59.080Z,63.67
2018-10-03T23:19:29.528Z,58.93
2018-10-03T23:22:00.347Z,50.30
2018-10-03T23:24:30.968Z,55.70
2018-10-03T23:27:01.605Z,53.00
2018-10-03T23:29:32.042Z,47.83
2018-10-03T23:32:02.843Z,48.13
2018-10-03T23:34:33.452Z,53.85
2018-10-03T23:37:04.225Z,54.57
2018-10-03T23:39:34.968Z,48.97
2018-10-03T23:42:05.745Z,51.40
2018-10-03T23:44:36.456Z,50.70
2018-10-03T23:47:07.049Z,42.93
2018-10-03T23:49:37.806Z,40.20
2018-10-03T23:52:09.147Z,42.77
2018-10-03T23:54:39.806Z,39.33
2018-10-03T23:57:10.714Z,42.57
2018-10-03T23:59:41.277Z,45.20
